Flight Track Log - Related Links

Times and Time Zones

All times are in EDT time to prevent confusion due to time zone crossing. See the N618JB flight status page for this flight to view local times or setup timezone preferences in your user account.

Time Position Orientation Groundspeed Altitude Reporting Facility
EDT Latitude Longitude Course Direction KTS MPH feet Rate Location/Type
Sun 05:36:30 PM 40.5667 -73.7500 128° Southeast 254 292 3,200  Level New York TRACON
Sun 05:38:00 PM 40.3607 -73.2993 131° Southeast  Level FlightAware Approximate
Sun 05:38:42 PM 40.4717 -73.5919 128° Southeast 259 298 5,000  Level New York Center
Sun 05:39:00 PM 40.2816 -73.1746 128° Southeast  Level FlightAware Approximate
Sun 05:39:42 PM 40.4422 -73.5172 117° Southeast 259 298 5,100  Level New York Center
Sun 05:40:00 PM 40.2053 -73.0471 128° Southeast  Level FlightAware Approximate
Sun 05:40:41 PM 40.4008 -73.4200 119° Southeast 264 304 8,200  Level New York Center
Sun 05:41:00 PM 40.1288 -72.9198 128° Southeast  Level FlightAware Approximate
Sun 05:41:42 PM 40.3672 -73.3397 119° Southeast 277 319 10,600  Level New York Center
Sun 05:42:43 PM 40.3153 -73.2264 121° Southeast 307 353 11,900 1,736 Climbing New York Center
Sun 05:43:43 PM 40.2525 -73.1478 136° Southeast 343 395 14,100 2,132 Climbing New York Center
Sun 05:44:44 PM 40.1517 -73.0847 154° Southeast 348 400 16,200 1,932 Climbing New York Center
Sun 05:45:41 PM 40.0528 -73.0217 154° Southeast 361 415 17,900 1,729 Climbing New York Center
Sun 05:46:42 PM 39.9539 -72.9589 154° Southeast 389 448 19,600 1,736 Climbing New York Center
Sun 05:47:42 PM 39.8508 -72.8936 154° Southeast 399 459 21,400 1,600 Climbing New York Center
Sun 05:48:42 PM 39.7478 -72.8308 155° Southeast 405 466 22,800 1,289 Climbing New York Center
Sun 05:49:43 PM 39.6406 -72.7603 153° Southeast 415 478 24,000 1,109 Climbing New York Center
Sun 05:50:41 PM 39.5314 -72.6953 155° Southeast 425 489 25,000 1,059 Climbing New York Center
Sun 05:51:42 PM 39.4197 -72.6250 154° Southeast 435 501 26,100 1,131 Climbing New York Center
Sun 05:52:43 PM 39.3042 -72.5494 153° Southeast 448 516 27,300 1,008 Climbing New York Center
Sun 05:53:41 PM 39.1886 -72.4797 155° Southeast 458 527 28,100 864 Climbing New York Center
Sun 05:54:41 PM 39.0686 -72.4097 156° South 465 535 29,000 992 Climbing New York Center
Sun 05:55:42 PM 38.9569 -72.3406 154° Southeast 482 555 30,100 1,131 Climbing New York Center
Sun 05:56:43 PM 38.8372 -72.2658 154° Southeast 482 555 31,300 942 Climbing New York Center
Sun 05:57:43 PM 38.7150 -72.1967 156° South 482 555 32,000 750 Climbing New York Center
Sun 05:58:43 PM 38.5950 -72.1197 153° Southeast 482 555 32,800 1,067 Climbing New York Center
Sun 06:00:00 PM 38.4510 -72.0304 154° Southeast  Level FlightAware Approximate
Sun 06:00:43 PM 38.3506 -71.9775 154° Southeast 482 555 35,200  Level New York Center
Sun 06:02:00 PM 38.2091 -71.8815 154° Southeast  Level FlightAware Approximate
Sun 06:02:41 PM 38.1100 -71.8283 154° Southeast 482 555 36,200  Level New York Center
Sun 06:03:42 PM 37.9917 -71.7528 153° Southeast 482 555 36,900 393 Climbing New York Center
Sun 06:04:43 PM 37.8692 -71.6878 157° South 482 555 37,000 50 Climbing New York Center
Sun 06:05:43 PM 37.7447 -71.6233 158° South 482 555 37,000  Level New York Center
Sun 06:06:43 PM 37.6178 -71.5822 166° South 471 542 37,000  Level New York Center
Sun 06:07:41 PM 37.4972 -71.5156 156° South 471 542 37,000  Level New York Center
Sun 06:09:08 PM 37.4833 -71.4500 155° Southeast 455 524 37,000  Level New York Oceanic (ODAPS)
Sun 06:09:42 PM 37.2561 -71.3564 155° Southeast 467 537 37,000  Level New York Center
Sun 06:10:43 PM 37.1356 -71.2981 159° South 487 560 37,000  Level New York Center
Sun 06:11:41 PM 37.0169 -71.2139 150° Southeast 468 539 37,000  Level New York Center
Sun 06:13:00 PM 36.8701 -71.1220 153° Southeast  Level FlightAware Approximate
Sun 06:15:00 PM 36.5688 -70.9111 155° Southeast 455 524 37,000  Level FlightAware Transoceanic
Sun 06:20:00 PM 36.0885 -70.6391 153° Southeast  Level FlightAware Approximate
Sun 06:21:00 PM 35.9767 -70.5709 154° Southeast  Level FlightAware Approximate
Sun 06:22:00 PM 35.8648 -70.5029 154° Southeast  Level FlightAware Approximate
Sun 06:23:00 PM 35.7529 -70.4351 154° Southeast  Level FlightAware Approximate
Sun 06:23:19 PM 35.7667 -70.4500 168° South 457 526 37,000  Level New York Oceanic (ODAPS)
Sun 06:24:00 PM 35.6306 -70.4014 168° South  Level FlightAware Approximate
Sun 06:25:00 PM 35.5088 -70.3689 168° South  Level FlightAware Approximate
Sun 06:26:00 PM 35.3869 -70.3364 168° South  Level FlightAware Approximate
Sun 06:27:00 PM 35.2650 -70.3041 168° South  Level FlightAware Approximate
Sun 06:28:00 PM 35.1432 -70.2719 168° South  Level FlightAware Approximate
Sun 06:29:00 PM 34.8941 -70.2213 168° South 457 526 37,000  Level FlightAware Transoceanic
Sun 06:30:00 PM 34.7694 -70.1890 168° South 457 526 37,000  Level FlightAware Transoceanic
Sun 06:31:00 PM 34.6447 -70.1568 168° South 457 526 37,000  Level FlightAware Transoceanic
Sun 06:32:00 PM 34.5200 -70.1247 168° South 457 526 37,000  Level FlightAware Transoceanic
Sun 06:33:00 PM 34.3952 -70.0928 168° South 457 526 37,000  Level FlightAware Transoceanic
Sun 06:34:00 PM 34.2705 -70.0609 168° South 457 526 37,000  Level FlightAware Transoceanic
Sun 06:35:00 PM 34.1458 -70.0291 168° South 457 526 37,000  Level FlightAware Transoceanic
Sun 06:36:00 PM 34.0210 -69.9974 168° South 457 526 37,000  Level FlightAware Transoceanic
Sun 06:37:00 PM 33.8963 -69.9658 168° South 457 526 37,000  Level FlightAware Transoceanic
Sun 06:38:00 PM 33.7715 -69.9342 168° South 457 526 37,000  Level FlightAware Transoceanic
Sun 06:39:00 PM 33.6468 -69.9028 168° South 457 526 37,000  Level FlightAware Transoceanic
Sun 06:40:00 PM 33.5220 -69.8715 168° South 457 526 37,000  Level FlightAware Transoceanic
Sun 06:41:00 PM 33.3972 -69.8402 168° South 457 526 37,000  Level FlightAware Transoceanic
Sun 06:42:00 PM 33.2724 -69.8091 168° South 457 526 37,000  Level FlightAware Transoceanic
Sun 06:43:00 PM 33.1476 -69.7780 168° South 457 526 37,000  Level FlightAware Transoceanic
Sun 06:44:00 PM 33.0228 -69.7471 168° South 457 526 37,000  Level FlightAware Transoceanic
Sun 06:45:00 PM 32.8980 -69.7162 168° South 457 526 37,000  Level FlightAware Transoceanic
Sun 06:46:00 PM 32.7732 -69.6854 168° South 457 526 37,000  Level FlightAware Transoceanic
Sun 06:47:00 PM 32.6483 -69.6546 168° South 457 526 37,000  Level FlightAware Transoceanic
Sun 06:48:00 PM 32.5235 -69.6240 168° South 457 526 37,000  Level FlightAware Transoceanic
Sun 06:49:00 PM 32.3987 -69.5935 168° South 457 526 37,000  Level FlightAware Transoceanic
Sun 06:50:00 PM 32.2738 -69.5630 168° South 457 526 37,000  Level FlightAware Transoceanic
Sun 06:51:00 PM 32.1490 -69.5326 168° South 457 526 37,000  Level FlightAware Transoceanic
Sun 06:52:00 PM 32.0241 -69.5023 168° South 457 526 37,000  Level FlightAware Transoceanic
Sun 06:53:00 PM 31.8992 -69.4721 168° South 457 526 37,000  Level FlightAware Transoceanic
Sun 06:54:00 PM 31.7743 -69.4420 168° South 457 526 37,000  Level FlightAware Transoceanic
Sun 06:55:00 PM 31.6495 -69.4119 168° South 457 526 37,000  Level FlightAware Transoceanic
Sun 06:56:00 PM 31.5246 -69.3820 168° South 457 526 37,000  Level FlightAware Transoceanic
Sun 06:57:00 PM 31.3997 -69.3521 168° South 457 526 37,000  Level FlightAware Transoceanic
Sun 06:58:00 PM 31.2748 -69.3223 168° South 457 526 37,000  Level FlightAware Transoceanic
Sun 06:59:00 PM 31.1499 -69.2926 169° South 457 526 37,000  Level FlightAware Transoceanic
Sun 07:00:00 PM 31.0249 -69.2629 169° South 457 526 37,000  Level FlightAware Transoceanic
Sun 07:01:00 PM 30.9000 -69.2333 168° South 457 526 37,000  Level FlightAware Transoceanic
Sun 07:01:52 PM 30.9000 -69.2333 168° South 451 519 37,000  Level New York Oceanic (ODAPS)
Sun 07:02:00 PM 30.7750 -69.2036 168° South 457 526 37,000  Level FlightAware Transoceanic
Sun 07:03:00 PM 30.6500 -69.1739 168° South 457 526 37,000  Level FlightAware Transoceanic
Sun 07:04:00 PM 30.5250 -69.1443 168° South 457 526 37,000  Level FlightAware Transoceanic
Sun 07:05:00 PM 30.4000 -69.1148 168° South 457 526 37,000  Level FlightAware Transoceanic
Sun 07:06:00 PM 30.2749 -69.0853 169° South 457 526 37,000  Level FlightAware Transoceanic
Sun 07:07:00 PM 30.1499 -69.0559 169° South 457 526 37,000  Level FlightAware Transoceanic
Sun 07:08:00 PM 29.8998 -68.9974 169° South 451 519 37,000  Level FlightAware Transoceanic
Sun 07:09:00 PM 29.7747 -68.9682 169° South 451 519 37,000  Level FlightAware Transoceanic
Sun 07:10:00 PM 29.6497 -68.9391 169° South 451 519 37,000  Level FlightAware Transoceanic
Sun 07:11:00 PM 29.5246 -68.9101 169° South 451 519 37,000  Level FlightAware Transoceanic
Sun 07:12:00 PM 29.3995 -68.8812 169° South 451 519 37,000  Level FlightAware Transoceanic
Sun 07:13:00 PM 29.2745 -68.8523 169° South 451 519 37,000  Level FlightAware Transoceanic
Sun 07:14:00 PM 29.1494 -68.8235 169° South 451 519 37,000  Level FlightAware Transoceanic
Sun 07:15:00 PM 29.0243 -68.7948 169° South 451 519 37,000  Level FlightAware Transoceanic
Sun 07:16:00 PM 28.8992 -68.7661 169° South 451 519 37,000  Level FlightAware Transoceanic
Sun 07:17:00 PM 28.7741 -68.7375 169° South 451 519 37,000  Level FlightAware Transoceanic
Sun 07:18:00 PM 28.6490 -68.7090 169° South 451 519 37,000  Level FlightAware Transoceanic
Sun 07:19:00 PM 28.5239 -68.6805 169° South 451 519 37,000  Level FlightAware Transoceanic
Sun 07:20:00 PM 28.3987 -68.6521 169° South 451 519 37,000  Level FlightAware Transoceanic
Sun 07:21:00 PM 28.2736 -68.6238 169° South 451 519 37,000  Level FlightAware Transoceanic
Sun 07:22:00 PM 28.1485 -68.5956 169° South 451 519 37,000  Level FlightAware Transoceanic
Sun 07:23:00 PM 28.0233 -68.5674 169° South 451 519 37,000  Level FlightAware Transoceanic
Sun 07:24:00 PM 27.8982 -68.5392 169° South 451 519 37,000  Level FlightAware Transoceanic
Sun 07:25:00 PM 27.7730 -68.5112 169° South 451 519 37,000  Level FlightAware Transoceanic
Sun 07:26:00 PM 27.6479 -68.4832 169° South 451 519 37,000  Level FlightAware Transoceanic
Sun 07:26:16 PM 27.9333 -68.5333 169° South 450 518 37,000  Level New York Oceanic (ODAPS)
Sun 07:27:00 PM 27.5227 -68.4553 169° South 451 519 37,000  Level FlightAware Transoceanic
Sun 07:28:00 PM 27.3976 -68.4274 169° South 451 519 37,000  Level FlightAware Transoceanic
Sun 07:29:00 PM 27.2724 -68.3996 169° South 451 519 37,000  Level FlightAware Transoceanic
Sun 07:30:00 PM 27.1472 -68.3718 169° South 451 519 37,000  Level FlightAware Transoceanic
Sun 07:31:00 PM 27.0220 -68.3442 169° South 451 519 37,000  Level FlightAware Transoceanic
Sun 07:32:00 PM 26.9560 -68.3196 169° South 450 518 37,000  Level FlightAware Transoceanic
Sun 07:33:00 PM 26.8338 -68.2931 169° South 450 518 37,000  Level FlightAware Transoceanic
Sun 07:34:00 PM 26.7116 -68.2667 169° South 450 518 37,000  Level FlightAware Transoceanic
Sun 07:35:00 PM 26.5894 -68.2403 169° South 450 518 37,000  Level FlightAware Transoceanic
Sun 07:36:00 PM 26.4672 -68.2141 169° South 450 518 37,000  Level FlightAware Transoceanic
Sun 07:37:00 PM 26.3450 -68.1878 169° South 450 518 37,000  Level FlightAware Transoceanic
Sun 07:38:00 PM 26.2227 -68.1617 169° South 450 518 37,000  Level FlightAware Transoceanic
Sun 07:39:00 PM 26.1005 -68.1355 169° South 450 518 37,000  Level FlightAware Transoceanic
Sun 07:40:00 PM 25.9783 -68.1095 169° South 450 518 37,000  Level FlightAware Transoceanic
Sun 07:41:00 PM 25.8561 -68.0834 169° South 450 518 37,000  Level FlightAware Transoceanic
Sun 07:42:00 PM 25.7338 -68.0575 169° South 450 518 37,000  Level FlightAware Transoceanic
Sun 07:43:00 PM 25.6116 -68.0316 169° South 450 518 37,000  Level FlightAware Transoceanic
Sun 07:44:00 PM 25.4893 -68.0057 169° South 450 518 37,000  Level FlightAware Transoceanic
Sun 07:45:00 PM 25.3671 -67.9799 169° South 450 518 37,000  Level FlightAware Transoceanic
Sun 07:45:01 PM 25.4667 -68.0000 169° South 455 524 37,000  Level New York Oceanic (ODAPS)
Sun 07:46:00 PM 25.2449 -67.9542 169° South 450 518 37,000  Level FlightAware Transoceanic
Sun 07:47:00 PM 25.1226 -67.9285 169° South 450 518 37,000  Level FlightAware Transoceanic
Sun 07:48:00 PM 25.0003 -67.9028 169° South 450 518 37,000  Level FlightAware Transoceanic
Sun 07:49:00 PM 24.8781 -67.8772 169° South 450 518 37,000  Level FlightAware Transoceanic
Sun 07:50:00 PM 24.7558 -67.8517 169° South 450 518 37,000  Level FlightAware Transoceanic
Sun 07:51:00 PM 24.6267 -67.8245 169° South 455 524 37,000  Level FlightAware Transoceanic
Sun 07:52:00 PM 24.5067 -67.7996 169° South 455 524 37,000  Level FlightAware Transoceanic
Sun 07:53:00 PM 24.3867 -67.7748 169° South 455 524 37,000  Level FlightAware Transoceanic
Sun 07:54:00 PM 24.2667 -67.7500 169° South 455 524 37,000  Level FlightAware Transoceanic
Sun 07:55:00 PM 24.1405 -67.7233 169° South 455 524 37,000  Level FlightAware Transoceanic
Sun 07:56:00 PM 24.0144 -67.6967 169° South 455 524 37,000  Level FlightAware Transoceanic
Sun 07:57:00 PM 23.8882 -67.6701 169° South 455 524 37,000  Level FlightAware Transoceanic
Sun 07:58:00 PM 23.7621 -67.6435 169° South 455 524 37,000  Level FlightAware Transoceanic
Sun 07:59:00 PM 23.6359 -67.6171 169° South 455 524 37,000  Level FlightAware Transoceanic
Sun 08:00:00 PM 23.5097 -67.5906 169° South 455 524 37,000  Level FlightAware Transoceanic
Sun 08:01:00 PM 23.3836 -67.5642 169° South 455 524 37,000  Level FlightAware Transoceanic
Sun 08:01:04 PM 23.3333 -67.5833 169° South 460 529 37,000  Level San Juan Center
Sun 08:02:00 PM 23.2574 -67.5379 169° South 455 524 37,000  Level FlightAware Transoceanic
Sun 08:02:04 PM 23.2000 -67.5500 167° South 460 529 37,000  Level San Juan Center
Sun 08:03:00 PM 23.1312 -67.5116 169° South 455 524 37,000  Level FlightAware Transoceanic
Sun 08:03:04 PM 23.0833 -67.5333 173° South 460 529 37,000  Level San Juan Center
Sun 08:04:00 PM 23.0050 -67.4854 169° South 455 524 37,000  Level FlightAware Transoceanic
Sun 08:04:05 PM 22.9500 -67.5000 167° South 460 529 37,000  Level San Juan Center
Sun 08:05:00 PM 22.8788 -67.4592 169° South 455 524 37,000  Level FlightAware Transoceanic
Sun 08:05:05 PM 22.8333 -67.4833 172° South 450 518 37,000  Level San Juan Center
Sun 08:06:00 PM 22.7526 -67.4331 169° South 455 524 37,000  Level FlightAware Transoceanic
Sun 08:06:05 PM 22.7000 -67.4500 167° South 460 529 37,000  Level San Juan Center
Sun 08:07:06 PM 22.5667 -67.4167 167° South 460 529 37,000  Level San Juan Center
Sun 08:08:05 PM 22.4500 -67.4000 172° South 460 529 37,000  Level San Juan Center
Sun 08:09:06 PM 22.3167 -67.3667 167° South 460 529 37,000  Level San Juan Center
Sun 08:10:06 PM 22.1833 -67.3500 173° South 460 529 37,000  Level San Juan Center
Sun 08:11:06 PM 22.0667 -67.3167 165° South 460 529 37,000  Level San Juan Center
Sun 08:12:07 PM 21.9333 -67.3000 173° South 460 529 37,000  Level San Juan Center
Sun 08:12:09 PM 22.2333 -67.3167 170° South 369 425 37,000  Level New York Oceanic (ODAPS)
Sun 08:13:07 PM 21.8167 -67.2667 165° South 450 518 37,000  Level San Juan Center
Sun 08:14:07 PM 21.7167 -67.2500 170° South 450 518 37,000  Level San Juan Center
Sun 08:15:08 PM 21.5667 -67.2167 168° South 460 529 37,000  Level San Juan Center
Sun 08:16:08 PM 21.4667 -67.2000 171° South 470 541 37,000  Level San Juan Center
Sun 08:17:08 PM 21.3167 -67.1333 158° South 470 541 37,000  Level San Juan Center
Sun 08:18:09 PM 21.1833 -67.0833 161° South 460 529 37,000  Level San Juan Center
Sun 08:19:09 PM 21.0667 -67.0500 165° South 470 541 37,000  Level San Juan Center
Sun 08:20:09 PM 20.9333 -67.0167 167° South 470 541 37,000  Level San Juan Center
Sun 08:21:10 PM 20.8167 -66.9667 158° South 470 541 37,000  Level San Juan Center
Sun 08:22:10 PM 20.6833 -66.9333 167° South 470 541 37,000 -100 Level San Juan Center
Sun 08:23:10 PM 20.5667 -66.8833 158° South 470 541 36,800 -500 Descending San Juan Center
Sun 08:24:10 PM 20.4333 -66.8500 167° South 470 541 36,000 -992 Descending San Juan Center
Sun 08:25:11 PM 20.3167 -66.8000 158° South 470 541 34,800 -1,835 Descending San Juan Center
Sun 08:26:11 PM 20.1833 -66.7667 167° South 460 529 32,300 -2,430 Descending San Juan Center
Sun 08:27:12 PM 20.0667 -66.7167 158° South 480 552 29,900 -2,182 Descending San Juan Center
Sun 08:28:12 PM 19.9333 -66.6833 167° South 470 541 27,900 -2,250 Descending San Juan Center
Sun 08:29:12 PM 19.8167 -66.6333 158° South 470 541 25,400 -2,250 Descending San Juan Center
Sun 08:30:12 PM 19.7000 -66.6000 165° South 450 518 23,400 -2,182 Descending San Juan Center
Sun 08:31:13 PM 19.5667 -66.5667 167° South 440 506 21,000 -2,331 Descending San Juan Center
Sun 08:32:13 PM 19.4667 -66.5333 163° South 420 483 18,700 -2,100 Descending San Juan Center
Sun 08:33:13 PM 19.3500 -66.5000 165° South 410 472 16,800 -2,100 Descending San Juan Center
Sun 08:34:13 PM 19.2500 -66.4667 163° South 380 437 14,500 -2,182 Descending San Juan Center
Sun 08:35:14 PM 19.1500 -66.4333 163° South 360 414 12,400 -1,884 Descending San Juan Center
Sun 08:36:14 PM 19.0500 -66.3833 155° Southeast 340 391 10,700 -1,300 Descending San Juan Center
Sun 08:37:14 PM 18.9667 -66.3667 169° South 320 368 9,800 -1,150 Descending San Juan Center
Sun 08:38:14 PM 18.8833 -66.3333 159° South 290 334 8,400 -1,388 Descending San Juan Center
Sun 08:39:15 PM 18.8000 -66.3167 169° South 290 334 7,000 -1,488 Descending San Juan Center
Sun 08:40:15 PM 18.7333 -66.2833 155° Southeast 280 322 5,400 -1,500 Descending San Juan Center
Sun 08:41:15 PM 18.6500 -66.2667 169° South 280 322 4,000 -1,190 Descending San Juan Center
Sun 08:42:16 PM 18.5833 -66.2333 155° Southeast 260 299 3,000 -496 Descending San Juan Center
Sun 08:43:16 PM 18.5167 -66.2167 167° South 270 311 3,000 -350 Level San Juan Center
Sun 08:44:16 PM 18.4500 -66.1833 155° Southeast 240 276 2,300 -694 Descending San Juan Center
Sun 08:45:17 PM 18.4333 -66.1333 109° East 220 253 1,600 -496 Descending San Juan Center
Sun 08:46:17 PM 18.4333 -66.0833 90° East 160 184 1,300 -500 Descending San Juan Center
Sun 08:47:17 PM 18.4333 -66.0333 90° East 150 173 600 -700 Descending San Juan Center

Login

Don't have an account? Register now (free) for customized features, flight alerts, and more!